Rechercher aéroport 
image banner adimage banner adimage banner ad
image banner ad

15CL - Hunt Farms

Situé à Merced, United States

ICAO - 15CL, IATA -

Données fournies par Airmate  

Information générale

Coordonnées: N37°20'34" W120°24'13"
Élévation : 223 feet MSL.
Variation magnétique : 15° East
Voir autres Aéroports à California

Données opérationnelles

Special qualification required
Heure actuelle UTC:
Heure actuelle locale:
Météo à : KMCE - Merced Rgnl/Macready Field ( 12 km )
METAR: KMCE 251253Z AUTO 32004KT 10SM CLR 20/11 A2986 RMK AO2 SLP110 T02000106
TAF: KMCE 251120Z 2512/2612 32008KT P6SM FEW250 FM251700 30007KT P6SM FEW250
Voir NOTAMs / SUP AIP / TFR affectant cet aéroport [VIEW]
Fréquences de communication: [VIEW]

Pistes:

Identifiant RWYQFULongueur (ft)Largeur (ft)SurfaceLDA (ft)
16230050EARTH
34230050EARTH

Coordonnées de l'aéroport

Adresse: Merced United States

Vue satellite de 15CL